sensor_id;sensor_type;location;lat;lon;timestamp;temperature;humidity
1307;DHT22;646;48.696;9.114;2022-11-13T00:00:24;2.70;99.90
1307;DHT22;646;48.696;9.114;2022-11-13T00:02:50;3.20;99.90
1307;DHT22;646;48.696;9.114;2022-11-13T00:05:15;3.10;99.90
1307;DHT22;646;48.696;9.114;2022-11-13T00:07:41;2.80;99.90
1307;DHT22;646;48.696;9.114;2022-11-13T00:10:06;3.00;99.90
1307;DHT22;646;48.696;9.114;2022-11-13T00:12:32;3.00;99.90
1307;DHT22;646;48.696;9.114;2022-11-13T00:14:58;3.00;99.90
1307;DHT22;646;48.696;9.114;2022-11-13T00:17:23;2.90;99.90
1307;DHT22;646;48.696;9.114;2022-11-13T00:19:49;2.30;99.90
1307;DHT22;646;48.696;9.114;2022-11-13T00:22:14;2.50;99.90
1307;DHT22;646;48.696;9.114;2022-11-13T00:24:40;3.00;99.90
1307;DHT22;646;48.696;9.114;2022-11-13T00:27:06;2.90;99.90
1307;DHT22;646;48.696;9.114;2022-11-13T00:29:31;2.30;99.90
1307;DHT22;646;48.696;9.114;2022-11-13T00:31:57;2.90;99.90
1307;DHT22;646;48.696;9.114;2022-11-13T00:34:22;2.80;99.90
1307;DHT22;646;48.696;9.114;2022-11-13T00:36:48;2.90;99.90
1307;DHT22;646;48.696;9.114;2022-11-13T00:39:13;2.80;99.90
1307;DHT22;646;48.696;9.114;2022-11-13T00:41:39;2.90;99.90
1307;DHT22;646;48.696;9.114;2022-11-13T00:44:05;2.80;99.90
1307;DHT22;646;48.696;9.114;2022-11-13T00:46:30;2.70;99.90
1307;DHT22;646;48.696;9.114;2022-11-13T00:48:56;2.30;99.90
1307;DHT22;646;48.696;9.114;2022-11-13T00:51:22;2.70;99.90
1307;DHT22;646;48.696;9.114;2022-11-13T00:53:47;2.20;99.90
1307;DHT22;646;48.696;9.114;2022-11-13T00:56:13;2.70;99.90
1307;DHT22;646;48.696;9.114;2022-11-13T00:58:39;2.80;99.90
1307;DHT22;646;48.696;9.114;2022-11-13T01:01:07;2.80;99.90
1307;DHT22;646;48.696;9.114;2022-11-13T01:03:33;2.70;99.90
1307;DHT22;646;48.696;9.114;2022-11-13T01:05:59;2.50;99.90
1307;DHT22;646;48.696;9.114;2022-11-13T01:08:24;2.70;99.90
1307;DHT22;646;48.696;9.114;2022-11-13T01:10:50;2.70;99.90
1307;DHT22;646;48.696;9.114;2022-11-13T01:13:16;2.80;99.90
1307;DHT22;646;48.696;9.114;2022-11-13T01:15:43;2.10;99.90
1307;DHT22;646;48.696;9.114;2022-11-13T01:18:09;2.60;99.90
1307;DHT22;646;48.696;9.114;2022-11-13T01:20:36;1.90;99.90
1307;DHT22;646;48.696;9.114;2022-11-13T01:23:02;2.60;99.90
1307;DHT22;646;48.696;9.114;2022-11-13T01:25:28;2.40;99.90
1307;DHT22;646;48.696;9.114;2022-11-13T01:27:53;2.40;99.90
1307;DHT22;646;48.696;9.114;2022-11-13T01:30:19;2.40;99.90
1307;DHT22;646;48.696;9.114;2022-11-13T01:32:45;2.30;99.90
1307;DHT22;646;48.696;9.114;2022-11-13T01:35:10;2.40;99.90
1307;DHT22;646;48.696;9.114;2022-11-13T01:37:36;2.50;99.90
1307;DHT22;646;48.696;9.114;2022-11-13T01:40:02;1.80;99.90
1307;DHT22;646;48.696;9.114;2022-11-13T01:42:27;2.40;99.90
1307;DHT22;646;48.696;9.114;2022-11-13T01:44:55;2.40;99.90
1307;DHT22;646;48.696;9.114;2022-11-13T01:47:22;2.20;99.90
1307;DHT22;646;48.696;9.114;2022-11-13T01:49:50;2.30;99.90
1307;DHT22;646;48.696;9.114;2022-11-13T01:52:24;2.50;99.90
1307;DHT22;646;48.696;9.114;2022-11-13T01:54:56;2.30;99.90
1307;DHT22;646;48.696;9.114;2022-11-13T01:57:23;2.20;99.90
1307;DHT22;646;48.696;9.114;2022-11-13T01:59:55;2.20;99.90
1307;DHT22;646;48.696;9.114;2022-11-13T02:02:22;2.00;99.90
1307;DHT22;646;48.696;9.114;2022-11-13T02:04:47;2.10;99.90
1307;DHT22;646;48.696;9.114;2022-11-13T02:07:14;2.00;99.90
1307;DHT22;646;48.696;9.114;2022-11-13T02:09:47;1.30;99.90
1307;DHT22;646;48.696;9.114;2022-11-13T02:12:16;1.60;99.90
1307;DHT22;646;48.696;9.114;2022-11-13T02:14:45;2.20;99.90
1307;DHT22;646;48.696;9.114;2022-11-13T02:17:18;2.00;99.90
1307;DHT22;646;48.696;9.114;2022-11-13T02:19:48;1.90;99.90
1307;DHT22;646;48.696;9.114;2022-11-13T02:22:33;1.80;99.90
1307;DHT22;646;48.696;9.114;2022-11-13T02:25:02;2.00;99.90
1307;DHT22;646;48.696;9.114;2022-11-13T02:27:48;1.90;99.90
1307;DHT22;646;48.696;9.114;2022-11-13T02:30:23;2.00;99.90
1307;DHT22;646;48.696;9.114;2022-11-13T02:32:51;2.10;99.90
1307;DHT22;646;48.696;9.114;2022-11-13T02:35:30;1.80;99.90
1307;DHT22;646;48.696;9.114;2022-11-13T02:37:58;2.00;99.90
1307;DHT22;646;48.696;9.114;2022-11-13T02:40:24;2.00;99.90
1307;DHT22;646;48.696;9.114;2022-11-13T02:42:50;2.10;99.90
1307;DHT22;646;48.696;9.114;2022-11-13T02:45:15;1.90;99.90
1307;DHT22;646;48.696;9.114;2022-11-13T02:47:41;2.00;99.90
1307;DHT22;646;48.696;9.114;2022-11-13T02:50:07;1.90;99.90
1307;DHT22;646;48.696;9.114;2022-11-13T02:52:33;2.10;99.90
1307;DHT22;646;48.696;9.114;2022-11-13T02:54:58;1.30;99.90
1307;DHT22;646;48.696;9.114;2022-11-13T02:57:24;2.00;99.90
1307;DHT22;646;48.696;9.114;2022-11-13T02:59:50;1.60;99.90
1307;DHT22;646;48.696;9.114;2022-11-13T03:02:15;1.60;99.90
1307;DHT22;646;48.696;9.114;2022-11-13T03:04:41;1.60;99.90
1307;DHT22;646;48.696;9.114;2022-11-13T03:07:06;1.60;99.90
1307;DHT22;646;48.696;9.114;2022-11-13T03:09:32;1.70;99.90
1307;DHT22;646;48.696;9.114;2022-11-13T03:11:57;1.00;99.90
1307;DHT22;646;48.696;9.114;2022-11-13T03:14:23;1.60;99.90
1307;DHT22;646;48.696;9.114;2022-11-13T03:16:48;1.90;99.90
1307;DHT22;646;48.696;9.114;2022-11-13T03:19:14;1.60;99.90
1307;DHT22;646;48.696;9.114;2022-11-13T03:21:39;1.80;99.90
1307;DHT22;646;48.696;9.114;2022-11-13T03:24:05;1.70;99.90
1307;DHT22;646;48.696;9.114;2022-11-13T03:26:31;1.50;99.90
1307;DHT22;646;48.696;9.114;2022-11-13T03:28:57;1.50;99.90
1307;DHT22;646;48.696;9.114;2022-11-13T03:31:23;1.60;99.90
1307;DHT22;646;48.696;9.114;2022-11-13T03:33:51;1.60;99.90
1307;DHT22;646;48.696;9.114;2022-11-13T03:36:17;1.80;99.90
1307;DHT22;646;48.696;9.114;2022-11-13T03:38:43;1.50;99.90
1307;DHT22;646;48.696;9.114;2022-11-13T03:41:09;1.30;99.90
1307;DHT22;646;48.696;9.114;2022-11-13T03:43:34;1.60;99.90
1307;DHT22;646;48.696;9.114;2022-11-13T03:46:00;1.80;99.90
1307;DHT22;646;48.696;9.114;2022-11-13T03:48:25;1.80;99.90
1307;DHT22;646;48.696;9.114;2022-11-13T03:50:53;1.60;99.90
1307;DHT22;646;48.696;9.114;2022-11-13T03:53:19;1.50;99.90
1307;DHT22;646;48.696;9.114;2022-11-13T03:55:45;1.50;99.90
1307;DHT22;646;48.696;9.114;2022-11-13T03:58:11;1.90;99.90
1307;DHT22;646;48.696;9.114;2022-11-13T04:00:38;1.80;99.90
1307;DHT22;646;48.696;9.114;2022-11-13T04:03:04;1.50;99.90
1307;DHT22;646;48.696;9.114;2022-11-13T04:05:29;1.90;99.90
1307;DHT22;646;48.696;9.114;2022-11-13T04:07:55;1.50;99.90
1307;DHT22;646;48.696;9.114;2022-11-13T04:10:21;1.30;99.90
1307;DHT22;646;48.696;9.114;2022-11-13T04:12:46;1.80;99.90
1307;DHT22;646;48.696;9.114;2022-11-13T04:15:12;1.50;99.90
1307;DHT22;646;48.696;9.114;2022-11-13T04:17:37;1.50;99.90
1307;DHT22;646;48.696;9.114;2022-11-13T04:20:03;1.50;99.90
1307;DHT22;646;48.696;9.114;2022-11-13T04:22:29;1.80;99.90
1307;DHT22;646;48.696;9.114;2022-11-13T04:24:54;0.90;99.90
1307;DHT22;646;48.696;9.114;2022-11-13T04:27:20;1.40;99.90
1307;DHT22;646;48.696;9.114;2022-11-13T04:29:45;1.60;99.90
1307;DHT22;646;48.696;9.114;2022-11-13T04:32:11;1.20;99.90
1307;DHT22;646;48.696;9.114;2022-11-13T04:34:36;1.30;99.90
1307;DHT22;646;48.696;9.114;2022-11-13T04:37:02;1.40;99.90
1307;DHT22;646;48.696;9.114;2022-11-13T04:39:27;1.40;99.90
1307;DHT22;646;48.696;9.114;2022-11-13T04:41:53;1.30;99.90
1307;DHT22;646;48.696;9.114;2022-11-13T04:44:37;1.20;99.90
1307;DHT22;646;48.696;9.114;2022-11-13T04:47:03;1.30;99.90
1307;DHT22;646;48.696;9.114;2022-11-13T04:49:28;1.50;99.90
1307;DHT22;646;48.696;9.114;2022-11-13T04:51:54;1.40;99.90
1307;DHT22;646;48.696;9.114;2022-11-13T04:54:19;1.10;99.90
1307;DHT22;646;48.696;9.114;2022-11-13T04:56:45;1.20;99.90
1307;DHT22;646;48.696;9.114;2022-11-13T04:59:10;1.20;99.90
1307;DHT22;646;48.696;9.114;2022-11-13T05:01:36;0.60;99.90
1307;DHT22;646;48.696;9.114;2022-11-13T05:04:02;1.10;99.90
1307;DHT22;646;48.696;9.114;2022-11-13T05:06:27;1.30;99.90
1307;DHT22;646;48.696;9.114;2022-11-13T05:08:53;1.00;99.90
1307;DHT22;646;48.696;9.114;2022-11-13T05:11:19;1.00;99.90
1307;DHT22;646;48.696;9.114;2022-11-13T05:13:44;0.40;99.90
1307;DHT22;646;48.696;9.114;2022-11-13T05:16:12;0.40;99.90
1307;DHT22;646;48.696;9.114;2022-11-13T05:18:38;0.90;99.90
1307;DHT22;646;48.696;9.114;2022-11-13T05:21:08;1.00;99.90
1307;DHT22;646;48.696;9.114;2022-11-13T05:23:34;0.70;99.90
1307;DHT22;646;48.696;9.114;2022-11-13T05:26:09;0.50;99.90
1307;DHT22;646;48.696;9.114;2022-11-13T05:28:35;1.00;99.90
1307;DHT22;646;48.696;9.114;2022-11-13T05:31:12;0.90;99.90
1307;DHT22;646;48.696;9.114;2022-11-13T05:33:39;0.90;99.90
1307;DHT22;646;48.696;9.114;2022-11-13T05:36:10;0.90;99.90
1307;DHT22;646;48.696;9.114;2022-11-13T05:38:36;0.80;99.90
1307;DHT22;646;48.696;9.114;2022-11-13T05:41:04;0.80;99.90
1307;DHT22;646;48.696;9.114;2022-11-13T05:43:30;1.10;99.90
1307;DHT22;646;48.696;9.114;2022-11-13T05:46:05;0.90;99.90
1307;DHT22;646;48.696;9.114;2022-11-13T05:48:31;0.70;99.90
1307;DHT22;646;48.696;9.114;2022-11-13T05:51:14;0.70;99.90
1307;DHT22;646;48.696;9.114;2022-11-13T05:53:41;0.90;99.90
1307;DHT22;646;48.696;9.114;2022-11-13T05:56:11;0.20;99.90
1307;DHT22;646;48.696;9.114;2022-11-13T05:58:37;0.80;99.90
1307;DHT22;646;48.696;9.114;2022-11-13T06:01:05;1.00;99.90
1307;DHT22;646;48.696;9.114;2022-11-13T06:03:31;1.00;99.90
1307;DHT22;646;48.696;9.114;2022-11-13T06:05:57;0.60;99.90
1307;DHT22;646;48.696;9.114;2022-11-13T06:08:23;0.70;99.90
1307;DHT22;646;48.696;9.114;2022-11-13T06:10:49;0.80;99.90
1307;DHT22;646;48.696;9.114;2022-11-13T06:13:14;0.90;99.90
1307;DHT22;646;48.696;9.114;2022-11-13T06:15:40;0.70;99.90
1307;DHT22;646;48.696;9.114;2022-11-13T06:18:05;0.50;99.90
1307;DHT22;646;48.696;9.114;2022-11-13T06:20:34;0.60;99.90
1307;DHT22;646;48.696;9.114;2022-11-13T06:22:59;0.70;99.90
1307;DHT22;646;48.696;9.114;2022-11-13T06:25:26;0.70;99.90
1307;DHT22;646;48.696;9.114;2022-11-13T06:27:52;0.70;99.90
1307;DHT22;646;48.696;9.114;2022-11-13T06:30:17;1.00;99.90
1307;DHT22;646;48.696;9.114;2022-11-13T06:32:43;0.80;99.90
1307;DHT22;646;48.696;9.114;2022-11-13T06:35:09;0.80;99.90
1307;DHT22;646;48.696;9.114;2022-11-13T06:37:34;0.90;99.90
1307;DHT22;646;48.696;9.114;2022-11-13T06:40:00;0.80;99.90
1307;DHT22;646;48.696;9.114;2022-11-13T06:42:26;0.80;99.90
1307;DHT22;646;48.696;9.114;2022-11-13T06:44:51;0.50;99.90
1307;DHT22;646;48.696;9.114;2022-11-13T06:47:17;0.90;99.90
1307;DHT22;646;48.696;9.114;2022-11-13T06:49:42;0.80;99.90
1307;DHT22;646;48.696;9.114;2022-11-13T06:52:08;0.90;99.90
1307;DHT22;646;48.696;9.114;2022-11-13T06:54:33;1.00;99.90
1307;DHT22;646;48.696;9.114;2022-11-13T06:56:59;0.50;99.90
1307;DHT22;646;48.696;9.114;2022-11-13T06:59:24;0.80;99.90
1307;DHT22;646;48.696;9.114;2022-11-13T07:01:50;1.10;99.90
1307;DHT22;646;48.696;9.114;2022-11-13T07:04:16;0.90;99.90
1307;DHT22;646;48.696;9.114;2022-11-13T07:06:41;0.90;99.90
1307;DHT22;646;48.696;9.114;2022-11-13T07:09:07;1.00;99.90
1307;DHT22;646;48.696;9.114;2022-11-13T07:11:32;1.20;99.90
1307;DHT22;646;48.696;9.114;2022-11-13T07:13:58;1.40;99.90
1307;DHT22;646;48.696;9.114;2022-11-13T07:16:23;1.30;99.90
1307;DHT22;646;48.696;9.114;2022-11-13T07:18:50;0.70;99.90
1307;DHT22;646;48.696;9.114;2022-11-13T07:21:16;1.40;99.90
1307;DHT22;646;48.696;9.114;2022-11-13T07:23:42;1.40;99.90
1307;DHT22;646;48.696;9.114;2022-11-13T07:26:10;1.40;99.90
1307;DHT22;646;48.696;9.114;2022-11-13T07:28:36;1.20;99.90
1307;DHT22;646;48.696;9.114;2022-11-13T07:31:02;1.20;99.90
1307;DHT22;646;48.696;9.114;2022-11-13T07:33:28;1.40;99.90
1307;DHT22;646;48.696;9.114;2022-11-13T07:35:54;1.60;99.90
1307;DHT22;646;48.696;9.114;2022-11-13T07:38:20;1.30;99.90
1307;DHT22;646;48.696;9.114;2022-11-13T07:40:46;1.50;99.90
1307;DHT22;646;48.696;9.114;2022-11-13T07:43:11;1.70;99.90
1307;DHT22;646;48.696;9.114;2022-11-13T07:45:38;1.50;99.90
1307;DHT22;646;48.696;9.114;2022-11-13T07:48:04;1.10;99.90
1307;DHT22;646;48.696;9.114;2022-11-13T07:50:32;1.60;99.90
1307;DHT22;646;48.696;9.114;2022-11-13T07:53:00;1.60;99.90
1307;DHT22;646;48.696;9.114;2022-11-13T07:55:26;1.80;99.90
1307;DHT22;646;48.696;9.114;2022-11-13T07:57:55;1.50;99.90
1307;DHT22;646;48.696;9.114;2022-11-13T08:00:22;2.10;99.90
1307;DHT22;646;48.696;9.114;2022-11-13T08:02:47;2.00;99.90
1307;DHT22;646;48.696;9.114;2022-11-13T08:05:14;2.10;99.90
1307;DHT22;646;48.696;9.114;2022-11-13T08:07:40;2.30;99.90
1307;DHT22;646;48.696;9.114;2022-11-13T08:10:06;2.20;99.90
1307;DHT22;646;48.696;9.114;2022-11-13T08:12:31;2.70;99.90
1307;DHT22;646;48.696;9.114;2022-11-13T08:14:57;4.00;99.90
1307;DHT22;646;48.696;9.114;2022-11-13T08:17:22;5.60;99.90
1307;DHT22;646;48.696;9.114;2022-11-13T08:19:48;7.20;99.90
1307;DHT22;646;48.696;9.114;2022-11-13T08:22:13;8.40;99.90
1307;DHT22;646;48.696;9.114;2022-11-13T08:24:39;10.30;99.90
1307;DHT22;646;48.696;9.114;2022-11-13T08:27:05;11.90;99.90
1307;DHT22;646;48.696;9.114;2022-11-13T08:29:31;13.30;99.90
1307;DHT22;646;48.696;9.114;2022-11-13T08:31:57;15.00;99.90
1307;DHT22;646;48.696;9.114;2022-11-13T08:34:23;16.30;99.90
1307;DHT22;646;48.696;9.114;2022-11-13T08:36:48;17.80;99.90
1307;DHT22;646;48.696;9.114;2022-11-13T08:39:14;18.40;99.90
1307;DHT22;646;48.696;9.114;2022-11-13T08:41:39;19.50;97.60
1307;DHT22;646;48.696;9.114;2022-11-13T08:44:05;20.80;93.70
1307;DHT22;646;48.696;9.114;2022-11-13T08:46:31;21.10;84.30
1307;DHT22;646;48.696;9.114;2022-11-13T08:48:56;21.80;71.20
1307;DHT22;646;48.696;9.114;2022-11-13T08:51:22;22.60;65.90
1307;DHT22;646;48.696;9.114;2022-11-13T08:53:47;23.40;62.50
1307;DHT22;646;48.696;9.114;2022-11-13T08:56:13;24.30;57.00
1307;DHT22;646;48.696;9.114;2022-11-13T08:58:38;24.50;50.80
1307;DHT22;646;48.696;9.114;2022-11-13T09:01:04;25.40;45.00
1307;DHT22;646;48.696;9.114;2022-11-13T09:03:29;24.90;37.30
1307;DHT22;646;48.696;9.114;2022-11-13T09:05:55;24.80;35.10
1307;DHT22;646;48.696;9.114;2022-11-13T09:08:21;24.80;35.40
1307;DHT22;646;48.696;9.114;2022-11-13T09:10:46;24.50;34.90
1307;DHT22;646;48.696;9.114;2022-11-13T09:13:12;25.00;35.10
1307;DHT22;646;48.696;9.114;2022-11-13T09:15:38;24.90;34.30
1307;DHT22;646;48.696;9.114;2022-11-13T09:18:04;25.00;34.40
1307;DHT22;646;48.696;9.114;2022-11-13T09:20:32;25.00;33.60
1307;DHT22;646;48.696;9.114;2022-11-13T09:22:59;24.60;33.40
1307;DHT22;646;48.696;9.114;2022-11-13T09:25:26;25.00;33.40
1307;DHT22;646;48.696;9.114;2022-11-13T09:27:54;24.70;33.50
1307;DHT22;646;48.696;9.114;2022-11-13T09:30:20;24.60;34.80
1307;DHT22;646;48.696;9.114;2022-11-13T09:32:46;25.10;33.10
1307;DHT22;646;48.696;9.114;2022-11-13T09:35:11;25.20;30.90
1307;DHT22;646;48.696;9.114;2022-11-13T09:37:37;25.50;31.30
1307;DHT22;646;48.696;9.114;2022-11-13T09:40:03;25.70;31.00
1307;DHT22;646;48.696;9.114;2022-11-13T09:42:30;25.80;29.70
1307;DHT22;646;48.696;9.114;2022-11-13T09:45:06;25.80;31.20
1307;DHT22;646;48.696;9.114;2022-11-13T09:47:37;25.20;29.80
1307;DHT22;646;48.696;9.114;2022-11-13T09:50:26;25.40;30.50
1307;DHT22;646;48.696;9.114;2022-11-13T09:52:52;26.10;31.70
1307;DHT22;646;48.696;9.114;2022-11-13T09:55:22;26.30;30.70
1307;DHT22;646;48.696;9.114;2022-11-13T10:01:00;26.20;30.50
1307;DHT22;646;48.696;9.114;2022-11-13T10:03:35;25.80;29.90
1307;DHT22;646;48.696;9.114;2022-11-13T10:06:18;26.60;31.30
1307;DHT22;646;48.696;9.114;2022-11-13T10:14:42;26.90;29.10
1307;DHT22;646;48.696;9.114;2022-11-13T10:17:23;26.50;29.10
1307;DHT22;646;48.696;9.114;2022-11-13T10:22:50;27.20;29.50
1307;DHT22;646;48.696;9.114;2022-11-13T10:25:22;27.40;28.70
1307;DHT22;646;48.696;9.114;2022-11-13T10:27:55;27.70;29.20
1307;DHT22;646;48.696;9.114;2022-11-13T10:30:22;27.70;28.40
1307;DHT22;646;48.696;9.114;2022-11-13T10:32:47;28.30;27.90
1307;DHT22;646;48.696;9.114;2022-11-13T10:38:06;28.60;27.00
1307;DHT22;646;48.696;9.114;2022-11-13T10:40:37;29.00;27.20
1307;DHT22;646;48.696;9.114;2022-11-13T10:43:15;29.60;27.40
1307;DHT22;646;48.696;9.114;2022-11-13T10:45:51;30.00;26.70
1307;DHT22;646;48.696;9.114;2022-11-13T10:48:26;30.10;25.50
1307;DHT22;646;48.696;9.114;2022-11-13T10:51:04;30.50;25.70
1307;DHT22;646;48.696;9.114;2022-11-13T10:53:41;30.80;25.70
1307;DHT22;646;48.696;9.114;2022-11-13T10:56:20;31.30;25.20
1307;DHT22;646;48.696;9.114;2022-11-13T10:59:19;31.80;24.90
1307;DHT22;646;48.696;9.114;2022-11-13T11:01:45;32.20;23.90
1307;DHT22;646;48.696;9.114;2022-11-13T11:04:23;32.30;23.20
1307;DHT22;646;48.696;9.114;2022-11-13T11:06:50;32.10;23.10
1307;DHT22;646;48.696;9.114;2022-11-13T11:09:26;32.20;23.90
1307;DHT22;646;48.696;9.114;2022-11-13T11:17:13;32.60;23.30
1307;DHT22;646;48.696;9.114;2022-11-13T11:19:43;32.40;23.40
1307;DHT22;646;48.696;9.114;2022-11-13T11:22:21;32.50;23.70
1307;DHT22;646;48.696;9.114;2022-11-13T11:25:03;32.70;23.30
1307;DHT22;646;48.696;9.114;2022-11-13T11:27:36;33.30;23.50
1307;DHT22;646;48.696;9.114;2022-11-13T11:30:18;33.70;22.40
1307;DHT22;646;48.696;9.114;2022-11-13T11:33:02;34.00;22.00
1307;DHT22;646;48.696;9.114;2022-11-13T11:35:49;34.20;21.80
1307;DHT22;646;48.696;9.114;2022-11-13T11:38:41;34.30;21.80
1307;DHT22;646;48.696;9.114;2022-11-13T11:41:11;34.40;21.60
1307;DHT22;646;48.696;9.114;2022-11-13T11:44:21;34.70;21.60
1307;DHT22;646;48.696;9.114;2022-11-13T11:46:49;34.20;21.30
1307;DHT22;646;48.696;9.114;2022-11-13T11:49:15;34.10;21.30
1307;DHT22;646;48.696;9.114;2022-11-13T11:52:15;34.00;22.00
1307;DHT22;646;48.696;9.114;2022-11-13T11:58:06;33.40;22.20
1307;DHT22;646;48.696;9.114;2022-11-13T12:00:16;33.50;22.00
1307;DHT22;646;48.696;9.114;2022-11-13T12:05:35;33.60;21.90
1307;DHT22;646;48.696;9.114;2022-11-13T12:10:39;32.90;22.10
1307;DHT22;646;48.696;9.114;2022-11-13T12:13:25;33.40;23.00
1307;DHT22;646;48.696;9.114;2022-11-13T12:16:16;33.40;22.20
1307;DHT22;646;48.696;9.114;2022-11-13T12:21:55;34.20;21.60
1307;DHT22;646;48.696;9.114;2022-11-13T12:24:48;34.30;21.70
1307;DHT22;646;48.696;9.114;2022-11-13T12:27:33;34.60;21.50
1307;DHT22;646;48.696;9.114;2022-11-13T12:30:09;34.00;21.30
1307;DHT22;646;48.696;9.114;2022-11-13T12:32:58;34.10;21.50
1307;DHT22;646;48.696;9.114;2022-11-13T12:35:24;33.30;21.40
1307;DHT22;646;48.696;9.114;2022-11-13T12:40:52;33.00;22.40
1307;DHT22;646;48.696;9.114;2022-11-13T12:43:28;32.70;22.60
1307;DHT22;646;48.696;9.114;2022-11-13T12:46:08;32.70;22.60
1307;DHT22;646;48.696;9.114;2022-11-13T12:48:39;32.40;23.50
1307;DHT22;646;48.696;9.114;2022-11-13T12:51:09;32.90;23.90
1307;DHT22;646;48.696;9.114;2022-11-13T12:53:48;33.60;22.60
1307;DHT22;646;48.696;9.114;2022-11-13T12:56:30;34.00;22.60
1307;DHT22;646;48.696;9.114;2022-11-13T13:01:57;33.30;22.00
1307;DHT22;646;48.696;9.114;2022-11-13T13:04:36;33.10;22.40
1307;DHT22;646;48.696;9.114;2022-11-13T13:12:28;32.60;22.80
1307;DHT22;646;48.696;9.114;2022-11-13T13:15:11;32.40;23.10
1307;DHT22;646;48.696;9.114;2022-11-13T13:17:37;32.10;22.90
1307;DHT22;646;48.696;9.114;2022-11-13T13:22:37;32.20;24.20
1307;DHT22;646;48.696;9.114;2022-11-13T13:25:21;32.50;24.00
1307;DHT22;646;48.696;9.114;2022-11-13T13:27:56;32.90;23.40
1307;DHT22;646;48.696;9.114;2022-11-13T13:30:23;33.00;23.30
1307;DHT22;646;48.696;9.114;2022-11-13T13:33:31;33.00;23.50
1307;DHT22;646;48.696;9.114;2022-11-13T13:38:50;32.30;23.40
1307;DHT22;646;48.696;9.114;2022-11-13T13:43:59;31.30;24.20
1307;DHT22;646;48.696;9.114;2022-11-13T13:46:32;31.00;24.90
1307;DHT22;646;48.696;9.114;2022-11-13T13:49:06;31.10;25.20
1307;DHT22;646;48.696;9.114;2022-11-13T13:51:40;30.80;25.00
1307;DHT22;646;48.696;9.114;2022-11-13T13:54:07;30.80;25.60
1307;DHT22;646;48.696;9.114;2022-11-13T13:56:39;31.00;25.70
1307;DHT22;646;48.696;9.114;2022-11-13T13:59:12;31.40;25.50
1307;DHT22;646;48.696;9.114;2022-11-13T14:01:38;31.70;25.20
1307;DHT22;646;48.696;9.114;2022-11-13T14:06:30;32.10;24.70
1307;DHT22;646;48.696;9.114;2022-11-13T14:09:07;32.20;25.10
1307;DHT22;646;48.696;9.114;2022-11-13T14:11:32;32.30;24.80
1307;DHT22;646;48.696;9.114;2022-11-13T14:14:09;32.20;24.40
1307;DHT22;646;48.696;9.114;2022-11-13T14:16:52;32.10;24.20
1307;DHT22;646;48.696;9.114;2022-11-13T14:19:18;32.00;24.30
1307;DHT22;646;48.696;9.114;2022-11-13T14:21:46;31.90;24.70
1307;DHT22;646;48.696;9.114;2022-11-13T14:24:19;31.70;25.10
1307;DHT22;646;48.696;9.114;2022-11-13T14:26:46;31.50;24.90
1307;DHT22;646;48.696;9.114;2022-11-13T14:29:36;31.40;24.90
1307;DHT22;646;48.696;9.114;2022-11-13T14:32:23;31.20;25.10
1307;DHT22;646;48.696;9.114;2022-11-13T14:34:52;30.80;24.90
1307;DHT22;646;48.696;9.114;2022-11-13T14:39:47;30.20;25.60
1307;DHT22;646;48.696;9.114;2022-11-13T14:44:52;27.60;27.80
1307;DHT22;646;48.696;9.114;2022-11-13T14:47:24;26.80;29.00
1307;DHT22;646;48.696;9.114;2022-11-13T14:49:50;26.90;29.70
1307;DHT22;646;48.696;9.114;2022-11-13T14:52:27;26.20;29.80
1307;DHT22;646;48.696;9.114;2022-11-13T14:55:04;25.90;30.00
1307;DHT22;646;48.696;9.114;2022-11-13T14:57:31;25.60;30.70
1307;DHT22;646;48.696;9.114;2022-11-13T15:00:07;24.80;31.30
1307;DHT22;646;48.696;9.114;2022-11-13T15:02:32;24.30;32.20
1307;DHT22;646;48.696;9.114;2022-11-13T15:04:58;23.40;33.00
1307;DHT22;646;48.696;9.114;2022-11-13T15:07:28;22.90;33.70
1307;DHT22;646;48.696;9.114;2022-11-13T15:09:55;22.60;34.50
1307;DHT22;646;48.696;9.114;2022-11-13T15:12:20;21.10;35.20
1307;DHT22;646;48.696;9.114;2022-11-13T15:14:46;20.30;37.10
1307;DHT22;646;48.696;9.114;2022-11-13T15:17:17;19.00;38.70
1307;DHT22;646;48.696;9.114;2022-11-13T15:19:50;17.70;40.70
1307;DHT22;646;48.696;9.114;2022-11-13T15:22:16;17.10;43.30
1307;DHT22;646;48.696;9.114;2022-11-13T15:24:41;15.90;44.60
1307;DHT22;646;48.696;9.114;2022-11-13T15:27:13;14.80;46.40
1307;DHT22;646;48.696;9.114;2022-11-13T15:29:39;14.20;48.30
1307;DHT22;646;48.696;9.114;2022-11-13T15:32:07;14.10;50.80
1307;DHT22;646;48.696;9.114;2022-11-13T15:34:33;13.40;52.00
1307;DHT22;646;48.696;9.114;2022-11-13T15:36:59;12.60;53.10
1307;DHT22;646;48.696;9.114;2022-11-13T15:39:24;12.60;54.70
1307;DHT22;646;48.696;9.114;2022-11-13T15:41:50;11.80;55.60
1307;DHT22;646;48.696;9.114;2022-11-13T15:44:16;11.40;56.80
1307;DHT22;646;48.696;9.114;2022-11-13T15:46:41;11.20;58.40
1307;DHT22;646;48.696;9.114;2022-11-13T15:49:07;11.10;60.00
1307;DHT22;646;48.696;9.114;2022-11-13T15:51:36;10.40;62.70
1307;DHT22;646;48.696;9.114;2022-11-13T15:54:18;10.50;64.20
1307;DHT22;646;48.696;9.114;2022-11-13T15:56:45;9.70;67.50
1307;DHT22;646;48.696;9.114;2022-11-13T15:59:12;9.70;69.40
1307;DHT22;646;48.696;9.114;2022-11-13T16:01:38;9.10;70.50
1307;DHT22;646;48.696;9.114;2022-11-13T16:04:04;9.40;72.20
1307;DHT22;646;48.696;9.114;2022-11-13T16:06:31;9.40;75.40
1307;DHT22;646;48.696;9.114;2022-11-13T16:09:01;9.00;77.90
1307;DHT22;646;48.696;9.114;2022-11-13T16:11:29;8.80;79.40
1307;DHT22;646;48.696;9.114;2022-11-13T16:13:56;8.40;80.60
1307;DHT22;646;48.696;9.114;2022-11-13T16:16:36;8.50;83.00
1307;DHT22;646;48.696;9.114;2022-11-13T16:19:07;8.40;84.90
1307;DHT22;646;48.696;9.114;2022-11-13T16:21:34;8.30;85.80
1307;DHT22;646;48.696;9.114;2022-11-13T16:23:59;8.00;87.10
1307;DHT22;646;48.696;9.114;2022-11-13T16:26:25;8.00;90.80
1307;DHT22;646;48.696;9.114;2022-11-13T16:28:53;8.00;92.60
1307;DHT22;646;48.696;9.114;2022-11-13T16:31:20;7.70;93.80
1307;DHT22;646;48.696;9.114;2022-11-13T16:33:46;7.70;95.20
1307;DHT22;646;48.696;9.114;2022-11-13T16:36:14;7.30;96.40
1307;DHT22;646;48.696;9.114;2022-11-13T16:38:40;7.60;97.50
1307;DHT22;646;48.696;9.114;2022-11-13T16:41:08;7.60;98.20
1307;DHT22;646;48.696;9.114;2022-11-13T16:43:34;7.30;98.80
1307;DHT22;646;48.696;9.114;2022-11-13T16:46:00;7.50;98.60
1307;DHT22;646;48.696;9.114;2022-11-13T16:48:26;7.20;98.70
1307;DHT22;646;48.696;9.114;2022-11-13T16:50:51;7.10;99.40
1307;DHT22;646;48.696;9.114;2022-11-13T16:53:17;6.90;99.90
1307;DHT22;646;48.696;9.114;2022-11-13T16:55:42;6.80;99.90
1307;DHT22;646;48.696;9.114;2022-11-13T16:58:12;6.50;99.90
1307;DHT22;646;48.696;9.114;2022-11-13T17:00:38;6.60;99.90
1307;DHT22;646;48.696;9.114;2022-11-13T17:03:04;6.60;99.90
1307;DHT22;646;48.696;9.114;2022-11-13T17:05:30;6.70;99.90
1307;DHT22;646;48.696;9.114;2022-11-13T17:07:59;6.30;99.90
1307;DHT22;646;48.696;9.114;2022-11-13T17:10:26;6.50;99.90
1307;DHT22;646;48.696;9.114;2022-11-13T17:12:53;6.60;99.90
1307;DHT22;646;48.696;9.114;2022-11-13T17:15:19;6.50;99.90
1307;DHT22;646;48.696;9.114;2022-11-13T17:17:45;6.20;99.90
1307;DHT22;646;48.696;9.114;2022-11-13T17:20:11;6.40;99.90
1307;DHT22;646;48.696;9.114;2022-11-13T17:22:39;6.30;99.90
1307;DHT22;646;48.696;9.114;2022-11-13T17:25:08;5.90;99.90
1307;DHT22;646;48.696;9.114;2022-11-13T17:27:34;6.10;99.90
1307;DHT22;646;48.696;9.114;2022-11-13T17:29:59;5.90;99.90
1307;DHT22;646;48.696;9.114;2022-11-13T17:32:25;5.70;99.90
1307;DHT22;646;48.696;9.114;2022-11-13T17:34:51;5.60;99.90